CheckWX is a tool to help pilots better visualize weather data.  It is not intended as a substitute for an official pre-flight weather briefing.

16:06:47 UTC

KIND TAF
Indianapolis International Airport
Indianapolis, Indiana, USA
KIND 181433Z 1815/1918 VRB03KT P6SM FEW250 FM181700 29005KT P6SM SCT050 FM190300 VRB03KT P6SM FEW120

Mar-18@
15:00 UTC

Mar-18 @ 15:00 UTC

Mar-18@
17:00 UTC

Mar-18 @ 17:00 UTC

KIND 181433Z 1815/1918 VRB03KT P6SM FEW250
Wind
  • Variable at 3 KTS
Cloud Levels
  • Few at 25,000' AGL

Mar-18@
17:00 UTC

Mar-18 @ 17:00 UTC

Mar-19@
03:00 UTC

Mar-19 @ 03:00 UTC

FM181700 29005KT P6SM SCT050

From

From Standard forecast or significant change

Wind
  • 290° at 5 KTS
Cloud Levels
  • Scattered at 5,000' AGL

Mar-19@
03:00 UTC

Mar-19 @ 03:00 UTC

Mar-19@
18:00 UTC

Mar-19 @ 18:00 UTC

FM190300 VRB03KT P6SM FEW120

From

From Standard forecast or significant change

Wind
  • Variable at 3 KTS
Cloud Levels
  • Few at 12,000' AGL